Silver Star, Montana
Current Conditions -  °F | °C
As of 11:10 PM on Saturday 22 Nov 2014 (Local Time) from KBTM Reporting Station
Light Snow Light Snow  
Wind Chill: 27°   Ceiling: 1400
Heat Index: 27°   Visibility: 1.5mi
Dew Point: 24°   Wind: 3mph
Humidity: 89%   Direction: 300°WNW
Pressure: 29.76"   Gusts: NA
Location:  45.69°N, 112.28°W
Report Text: KBTM 230610Z AUTO 30003KT 1 1/2SM -SN BR BKN014 OVC029 M03/M04 A2976 RMK AO2 P0001 T10281044
Loading
Personal Weather Stations






























Interactive Weather Map New forecast layout! Learn more

10-Day Weather Forecast

Advertisements
Track Severe Weather on mobile